createdAt,value
2018-05-24T00:00:28.690Z,948.46
2018-05-24T00:01:28.703Z,948.52
2018-05-24T00:02:28.660Z,948.49
2018-05-24T00:03:28.662Z,948.51
2018-05-24T00:04:28.653Z,948.48
2018-05-24T00:05:28.664Z,948.49
2018-05-24T00:06:28.649Z,948.51
2018-05-24T00:07:28.634Z,948.51
2018-05-24T00:08:28.654Z,948.49
2018-05-24T00:09:28.622Z,948.48
2018-05-24T00:10:28.636Z,948.48
2018-05-24T00:11:28.613Z,948.47
2018-05-24T00:12:28.614Z,948.47
2018-05-24T00:13:28.614Z,948.50
2018-05-24T00:14:28.616Z,948.49
2018-05-24T00:15:28.604Z,948.50
2018-05-24T00:16:28.605Z,948.46
2018-05-24T00:17:28.601Z,948.47
2018-05-24T00:18:28.501Z,948.48
2018-05-24T00:19:28.634Z,948.50
2018-05-24T00:20:28.482Z,948.48
2018-05-24T00:21:28.640Z,948.49
2018-05-24T00:22:28.586Z,948.53
2018-05-24T00:23:28.583Z,948.51
2018-05-24T00:24:28.594Z,948.48
2018-05-24T00:25:28.603Z,948.52
2018-05-24T00:26:28.601Z,948.49
2018-05-24T00:27:28.568Z,948.49
2018-05-24T00:28:28.607Z,948.48
2018-05-24T00:29:28.579Z,948.47
2018-05-24T00:30:28.565Z,948.50
2018-05-24T00:31:28.571Z,948.47
2018-05-24T00:32:28.553Z,948.47
2018-05-24T00:33:28.557Z,948.52
2018-05-24T00:34:28.611Z,948.48
2018-05-24T00:35:28.540Z,948.47
2018-05-24T00:36:28.541Z,948.50
2018-05-24T00:37:28.537Z,948.53
2018-05-24T00:38:28.531Z,948.46
2018-05-24T00:39:28.531Z,948.48
2018-05-24T00:40:28.527Z,948.49
2018-05-24T00:41:28.533Z,948.46
2018-05-24T00:42:28.529Z,948.47
2018-05-24T00:43:28.539Z,948.47
2018-05-24T00:44:28.515Z,948.45
2018-05-24T00:45:28.515Z,948.45
2018-05-24T00:46:28.503Z,948.47
2018-05-24T00:47:28.520Z,948.48
2018-05-24T00:48:28.498Z,948.45
2018-05-24T00:49:28.556Z,948.46
2018-05-24T00:50:28.522Z,948.47
2018-05-24T00:51:28.564Z,948.47
2018-05-24T00:52:28.379Z,948.48
2018-05-24T00:53:28.484Z,948.49
2018-05-24T00:54:28.483Z,948.47
2018-05-24T00:55:28.476Z,948.51
2018-05-24T00:56:28.479Z,948.45
2018-05-24T00:57:28.375Z,948.46
2018-05-24T00:58:28.463Z,948.42
2018-05-24T00:59:28.472Z,948.41
2018-05-24T01:00:28.475Z,948.40
2018-05-24T01:01:28.478Z,948.41
2018-05-24T01:02:28.456Z,948.37
2018-05-24T01:03:28.447Z,948.38
2018-05-24T01:04:28.500Z,948.38
2018-05-24T01:05:28.449Z,948.39
2018-05-24T01:06:28.455Z,948.36
2018-05-24T01:07:28.431Z,948.37
2018-05-24T01:08:28.430Z,948.34
2018-05-24T01:09:28.431Z,948.37
2018-05-24T01:10:28.333Z,948.34
2018-05-24T01:11:28.428Z,948.33
2018-05-24T01:12:28.429Z,948.35
2018-05-24T01:13:28.416Z,948.40
2018-05-24T01:14:28.426Z,948.35
2018-05-24T01:15:28.411Z,948.35
2018-05-24T01:16:28.416Z,948.32
2018-05-24T01:17:28.413Z,948.36
2018-05-24T01:18:28.401Z,948.37
2018-05-24T01:19:28.399Z,948.33
2018-05-24T01:20:28.396Z,948.36
2018-05-24T01:21:28.392Z,948.29
2018-05-24T01:22:28.282Z,948.26
2018-05-24T01:23:28.404Z,948.26
2018-05-24T01:24:28.387Z,948.24
2018-05-24T01:25:28.377Z,948.22
2018-05-24T01:26:28.376Z,948.24
2018-05-24T01:27:28.372Z,948.21
2018-05-24T01:28:28.396Z,948.18
2018-05-24T01:29:28.370Z,948.22
2018-05-24T01:30:28.353Z,948.20
2018-05-24T02:03:47.232Z,947.94
2018-05-24T02:04:47.206Z,947.96
2018-05-24T02:06:40.125Z,947.97
2018-05-24T02:07:40.106Z,947.97
2018-05-24T02:09:33.029Z,947.97
2018-05-24T02:10:33.006Z,947.99
2018-05-24T02:12:25.918Z,947.99
2018-05-24T02:13:25.899Z,947.98
2018-05-24T02:15:19.683Z,947.98
2018-05-24T02:16:18.888Z,947.96
2018-05-24T02:17:18.877Z,947.93
2018-05-24T02:18:18.875Z,948.00
2018-05-24T02:19:18.874Z,948.01
2018-05-24T02:20:18.860Z,948.02
2018-05-24T02:21:18.862Z,948.02
2018-05-24T02:22:18.857Z,948.06
2018-05-24T02:23:18.849Z,948.06
2018-05-24T02:24:18.841Z,948.05
2018-05-24T02:25:18.842Z,948.04
2018-05-24T02:26:18.837Z,948.03
2018-05-24T02:27:18.845Z,948.04
2018-05-24T02:28:18.840Z,948.02
2018-05-24T02:29:18.824Z,948.02
2018-05-24T02:30:18.829Z,948.00
2018-05-24T02:31:18.818Z,948.06
2018-05-24T02:32:18.817Z,948.06
2018-05-24T02:33:18.811Z,948.06
2018-05-24T02:34:18.823Z,948.04
2018-05-24T02:35:18.874Z,948.03
2018-05-24T02:36:18.800Z,948.07
2018-05-24T02:37:18.798Z,948.02
2018-05-24T02:38:18.792Z,948.05
2018-05-24T02:39:18.789Z,948.01
2018-05-24T02:40:18.790Z,948.04
2018-05-24T02:41:18.783Z,948.02
2018-05-24T02:42:18.783Z,948.04
2018-05-24T02:43:18.776Z,948.07
2018-05-24T02:44:18.771Z,948.05
2018-05-24T02:45:18.787Z,948.02
2018-05-24T02:46:18.807Z,948.06
2018-05-24T02:47:18.765Z,948.05
2018-05-24T02:48:18.759Z,948.03
2018-05-24T02:49:18.762Z,948.05
2018-05-24T02:50:18.752Z,948.02
2018-05-24T02:51:18.742Z,948.03
2018-05-24T02:52:18.747Z,948.02
2018-05-24T02:53:18.734Z,948.01
2018-05-24T02:54:18.737Z,947.98
2018-05-24T02:55:18.740Z,947.94
2018-05-24T02:56:18.786Z,947.93
2018-05-24T02:57:18.747Z,947.95
2018-05-24T02:58:18.732Z,947.95
2018-05-24T02:59:18.723Z,947.95
2018-05-24T03:00:18.737Z,947.93
2018-05-24T03:01:18.718Z,947.92
2018-05-24T03:02:18.720Z,947.89
2018-05-24T03:03:18.710Z,947.95
2018-05-24T03:04:18.702Z,947.95
2018-05-24T03:05:18.706Z,947.93
2018-05-24T03:06:18.714Z,947.93
2018-05-24T03:07:18.698Z,947.94
2018-05-24T03:08:18.714Z,947.95
2018-05-24T03:09:18.701Z,947.95
2018-05-24T03:10:18.688Z,947.99
2018-05-24T03:11:18.706Z,947.98
2018-05-24T03:12:18.683Z,948.00
2018-05-24T03:13:18.672Z,948.02
2018-05-24T03:14:18.678Z,948.04
2018-05-24T03:15:18.676Z,948.09
2018-05-24T03:16:18.683Z,948.12
2018-05-24T03:17:18.684Z,948.06
2018-05-24T03:18:18.661Z,948.13
2018-05-24T03:19:18.658Z,948.13
2018-05-24T03:20:18.654Z,948.12
2018-05-24T03:21:18.655Z,948.15
2018-05-24T03:22:18.650Z,948.16
2018-05-24T03:23:18.645Z,948.15
2018-05-24T03:24:18.643Z,948.18
2018-05-24T03:25:18.636Z,948.18
2018-05-24T03:26:18.637Z,948.19
2018-05-24T03:27:18.633Z,948.20
2018-05-24T03:28:18.647Z,948.23
2018-05-24T03:29:18.626Z,948.21
2018-05-24T03:30:18.630Z,948.24
2018-05-24T03:31:18.619Z,948.20
2018-05-24T03:32:18.618Z,948.23
2018-05-24T03:33:18.613Z,948.28
2018-05-24T03:34:18.600Z,948.29
2018-05-24T03:35:18.675Z,948.23
2018-05-24T03:36:18.604Z,948.27
2018-05-24T03:37:18.600Z,948.30
2018-05-24T03:38:18.629Z,948.28
2018-05-24T03:39:18.599Z,948.32
2018-05-24T03:40:18.590Z,948.31
2018-05-24T03:41:18.587Z,948.31
2018-05-24T03:42:18.589Z,948.36
2018-05-24T03:43:18.585Z,948.32
2018-05-24T03:44:18.577Z,948.37
2018-05-24T03:45:18.570Z,948.32
2018-05-24T03:46:18.574Z,948.34
2018-05-24T03:47:18.576Z,948.38
2018-05-24T03:48:18.565Z,948.37
2018-05-24T03:49:18.561Z,948.39
2018-05-24T03:50:18.572Z,948.40
2018-05-24T03:51:18.553Z,948.38
2018-05-24T03:52:18.554Z,948.42
2018-05-24T03:53:18.612Z,948.39
2018-05-24T03:54:18.548Z,948.41
2018-05-24T03:55:18.541Z,948.40
2018-05-24T03:56:18.537Z,948.38
2018-05-24T03:57:18.553Z,948.41
2018-05-24T03:58:18.533Z,948.40
2018-05-24T03:59:18.529Z,948.41
2018-05-24T04:00:18.542Z,948.41
2018-05-24T04:01:18.527Z,948.41
2018-05-24T04:02:18.523Z,948.45
2018-05-24T04:03:18.516Z,948.43
2018-05-24T04:04:18.516Z,948.42
2018-05-24T04:05:18.507Z,948.44
2018-05-24T04:06:18.509Z,948.47
2018-05-24T04:07:18.495Z,948.46
2018-05-24T04:08:18.493Z,948.48
2018-05-24T04:09:18.510Z,948.48
2018-05-24T04:10:18.507Z,948.51
2018-05-24T04:11:18.508Z,948.48
2018-05-24T04:12:18.486Z,948.52
2018-05-24T04:13:18.483Z,948.55
2018-05-24T04:14:18.494Z,948.60
2018-05-24T04:15:18.477Z,948.56
2018-05-24T04:16:18.478Z,948.54
2018-05-24T04:17:18.466Z,948.56
2018-05-24T04:18:18.461Z,948.54
2018-05-24T04:19:18.466Z,948.56
2018-05-24T04:20:18.465Z,948.58
2018-05-24T04:21:18.459Z,948.58
2018-05-24T04:22:18.484Z,948.59
2018-05-24T04:23:18.539Z,948.58
2018-05-24T04:24:18.442Z,948.62
2018-05-24T04:25:18.444Z,948.61
2018-05-24T04:26:18.444Z,948.64
2018-05-24T04:27:18.440Z,948.67
2018-05-24T04:28:18.434Z,948.70
2018-05-24T04:29:18.427Z,948.67
2018-05-24T04:30:18.427Z,948.68
2018-05-24T04:31:18.428Z,948.65
2018-05-24T04:32:18.423Z,948.63
2018-05-24T04:33:18.409Z,948.62
2018-05-24T04:34:18.415Z,948.64
2018-05-24T04:35:18.424Z,948.65
2018-05-24T04:36:18.412Z,948.62
2018-05-24T04:37:18.410Z,948.59
2018-05-24T04:38:18.408Z,948.62
2018-05-24T04:39:18.392Z,948.62
2018-05-24T04:40:18.393Z,948.64
2018-05-24T04:41:18.395Z,948.67
2018-05-24T04:42:18.394Z,948.66
2018-05-24T04:43:18.388Z,948.71
2018-05-24T04:44:18.382Z,948.65
2018-05-24T04:45:18.381Z,948.70
2018-05-24T04:46:18.377Z,948.72
2018-05-24T04:47:18.387Z,948.71
2018-05-24T04:48:18.370Z,948.69
2018-05-24T04:49:18.373Z,948.68
2018-05-24T04:50:18.366Z,948.70
2018-05-24T04:51:18.364Z,948.69
2018-05-24T04:52:18.417Z,948.69
2018-05-24T04:53:18.358Z,948.69
2018-05-24T04:54:18.373Z,948.73
2018-05-24T04:55:18.351Z,948.73
2018-05-24T04:56:18.350Z,948.74
2018-05-24T04:57:18.359Z,948.72
2018-05-24T04:58:18.352Z,948.70
2018-05-24T04:59:18.340Z,948.71
2018-05-24T05:00:18.338Z,948.72
2018-05-24T05:01:18.332Z,948.71
2018-05-24T05:02:18.331Z,948.73
2018-05-24T05:03:18.330Z,948.75
2018-05-24T05:04:18.331Z,948.78
2018-05-24T05:05:18.346Z,948.78
2018-05-24T05:06:18.332Z,948.77
2018-05-24T05:07:18.323Z,948.79
2018-05-24T05:08:18.319Z,948.76
2018-05-24T05:09:18.361Z,948.80
2018-05-24T05:10:18.316Z,948.77
2018-05-24T05:11:18.310Z,948.80
2018-05-24T05:12:18.307Z,948.78
2018-05-24T05:13:18.319Z,948.77
2018-05-24T05:14:18.304Z,948.77
2018-05-24T05:15:18.302Z,948.79
2018-05-24T05:16:18.301Z,948.79
2018-05-24T05:17:18.296Z,948.77
2018-05-24T05:18:18.295Z,948.79
2018-05-24T05:19:18.288Z,948.75
2018-05-24T05:20:18.292Z,948.77
2018-05-24T05:21:18.310Z,948.71
2018-05-24T05:22:18.302Z,948.79
2018-05-24T05:23:18.347Z,948.74
2018-05-24T05:24:18.286Z,948.79
2018-05-24T05:25:18.345Z,948.77
2018-05-24T05:26:18.270Z,948.82
2018-05-24T05:27:18.272Z,948.79
2018-05-24T05:28:18.271Z,948.82
2018-05-24T05:29:18.280Z,948.79
2018-05-24T05:30:18.268Z,948.82
2018-05-24T05:31:18.263Z,948.82
2018-05-24T05:32:18.258Z,948.84
2018-05-24T05:33:18.284Z,948.80
2018-05-24T05:34:18.274Z,948.83
2018-05-24T05:35:18.260Z,948.82
2018-05-24T05:36:18.253Z,948.83
2018-05-24T05:37:18.246Z,948.82
2018-05-24T05:38:18.342Z,948.84
2018-05-24T05:39:18.257Z,948.85
2018-05-24T05:40:18.244Z,948.84
2018-05-24T05:41:18.250Z,948.88
2018-05-24T05:42:18.262Z,948.90
2018-05-24T05:43:18.239Z,948.89
2018-05-24T05:44:18.249Z,948.83
2018-05-24T05:45:18.238Z,948.87
2018-05-24T05:46:18.250Z,948.88
2018-05-24T05:47:18.233Z,948.87
2018-05-24T05:48:18.236Z,948.87
2018-05-24T05:49:18.224Z,948.85
2018-05-24T05:50:18.240Z,948.89
2018-05-24T05:51:18.225Z,948.90
2018-05-24T05:52:18.226Z,948.91
2018-05-24T05:53:18.226Z,948.87
2018-05-24T05:54:18.228Z,948.88
2018-05-24T05:55:18.242Z,948.88
2018-05-24T05:56:18.224Z,948.86
2018-05-24T05:57:18.226Z,948.86
2018-05-24T05:58:18.223Z,948.86
2018-05-24T05:59:18.223Z,948.85
2018-05-24T06:00:18.218Z,948.87
2018-05-24T06:01:18.212Z,948.84
2018-05-24T06:02:18.220Z,948.84
2018-05-24T06:03:18.221Z,948.82
2018-05-24T06:04:18.228Z,948.78
2018-05-24T06:05:18.217Z,948.79
2018-05-24T06:06:18.235Z,948.84
2018-05-24T06:07:18.224Z,948.81
2018-05-24T06:08:18.224Z,948.84
2018-05-24T06:09:18.233Z,948.82
2018-05-24T06:10:18.226Z,948.82
2018-05-24T06:11:18.225Z,948.84
2018-05-24T06:12:18.250Z,948.81
2018-05-24T06:13:18.228Z,948.85
2018-05-24T06:14:18.231Z,948.85
2018-05-24T06:15:18.230Z,948.88
2018-05-24T06:16:18.231Z,948.85
2018-05-24T06:17:18.232Z,948.87
2018-05-24T06:18:18.231Z,948.87
2018-05-24T06:19:18.235Z,948.90
2018-05-24T06:20:18.245Z,948.89
2018-05-24T06:21:18.238Z,948.93
2018-05-24T06:22:18.241Z,948.97
2018-05-24T06:23:18.243Z,948.89
2018-05-24T06:24:18.256Z,948.93
2018-05-24T06:25:18.267Z,948.91
2018-05-24T06:26:18.248Z,948.93
2018-05-24T06:27:18.253Z,948.93
2018-05-24T06:28:18.327Z,948.94
2018-05-24T06:29:18.253Z,948.97
2018-05-24T06:30:18.258Z,948.92
2018-05-24T06:31:18.304Z,948.93
2018-05-24T06:32:18.279Z,948.93
2018-05-24T06:33:18.271Z,948.95
2018-05-24T06:34:18.271Z,948.93
2018-05-24T06:35:18.267Z,948.87
2018-05-24T06:36:18.269Z,948.95
2018-05-24T06:37:18.348Z,948.92
2018-05-24T06:38:18.282Z,948.93
2018-05-24T06:39:18.276Z,948.93
2018-05-24T06:40:18.272Z,948.95
2018-05-24T06:41:18.284Z,948.97
2018-05-24T06:42:18.286Z,948.97
2018-05-24T06:43:18.285Z,948.99
2018-05-24T06:44:18.298Z,949.04
2018-05-24T06:45:18.293Z,949.04
2018-05-24T06:46:18.294Z,949.03
2018-05-24T06:47:18.294Z,949.04
2018-05-24T06:48:18.296Z,949.02
2018-05-24T06:49:18.298Z,949.05
2018-05-24T06:50:18.293Z,949.01
2018-05-24T06:51:18.303Z,949.05
2018-05-24T06:52:18.303Z,949.02
2018-05-24T06:53:18.304Z,949.06
2018-05-24T06:54:18.397Z,949.04
2018-05-24T06:55:18.309Z,949.05
2018-05-24T06:56:18.310Z,949.07
2018-05-24T06:57:18.316Z,949.09
2018-05-24T06:58:18.388Z,949.14
2018-05-24T06:59:18.340Z,949.10
2018-05-24T07:00:18.321Z,949.13
2018-05-24T07:01:18.324Z,949.11
2018-05-24T07:02:18.325Z,949.15
2018-05-24T07:03:18.325Z,949.12
2018-05-24T07:04:18.326Z,949.13
2018-05-24T07:05:18.335Z,949.13
2018-05-24T07:06:18.348Z,949.15
2018-05-24T07:07:18.329Z,949.17
2018-05-24T07:08:18.338Z,949.16
2018-05-24T07:09:18.347Z,949.14
2018-05-24T07:10:18.391Z,949.15
2018-05-24T07:11:18.344Z,949.13
2018-05-24T07:12:18.348Z,949.12
2018-05-24T07:13:18.357Z,949.09
2018-05-24T07:14:18.354Z,949.09
2018-05-24T07:15:18.351Z,949.06
2018-05-24T07:16:18.356Z,949.09
2018-05-24T07:17:18.360Z,949.08
2018-05-24T07:18:18.362Z,949.11
2018-05-24T07:19:18.369Z,949.08
2018-05-24T07:20:18.368Z,949.09
2018-05-24T07:21:18.374Z,949.10
2018-05-24T07:22:18.368Z,949.11
2018-05-24T07:23:18.378Z,949.06
2018-05-24T07:24:18.379Z,949.11
2018-05-24T07:25:18.381Z,949.08
2018-05-24T07:26:18.388Z,949.07
2018-05-24T07:27:18.389Z,949.11
2018-05-24T07:28:18.392Z,949.11
2018-05-24T07:29:18.416Z,949.13
2018-05-24T07:30:18.419Z,949.08
2018-05-24T07:31:18.404Z,949.14
2018-05-24T07:32:18.408Z,949.11
2018-05-24T07:33:18.410Z,949.10
2018-05-24T07:34:18.421Z,949.14
2018-05-24T07:35:18.418Z,949.19
2018-05-24T07:36:18.423Z,949.16
2018-05-24T07:37:18.426Z,949.15
2018-05-24T07:38:18.435Z,949.14
2018-05-24T07:39:18.435Z,949.10
2018-05-24T07:40:18.442Z,949.13
2018-05-24T07:41:18.449Z,949.16
2018-05-24T07:42:18.455Z,949.14
2018-05-24T07:43:18.448Z,949.13
2018-05-24T07:44:18.458Z,949.14
2018-05-24T07:45:18.464Z,949.10
2018-05-24T07:46:18.465Z,949.14
2018-05-24T07:47:18.472Z,949.09
2018-05-24T07:48:18.477Z,949.14
2018-05-24T07:49:18.468Z,949.08
2018-05-24T07:50:18.472Z,949.06
2018-05-24T07:51:18.479Z,949.10
2018-05-24T07:52:18.513Z,949.09
2018-05-24T07:53:18.499Z,949.00
2018-05-24T07:54:18.492Z,949.03
2018-05-24T07:55:18.501Z,949.03
2018-05-24T07:56:18.513Z,949.02
2018-05-24T07:57:18.509Z,949.03
2018-05-24T07:58:18.523Z,949.01
2018-05-24T07:59:18.527Z,949.08
2018-05-24T08:00:18.527Z,949.07
2018-05-24T08:01:18.539Z,949.09
2018-05-24T08:02:18.543Z,949.03
2018-05-24T08:03:18.550Z,949.09
2018-05-24T08:04:18.563Z,949.18
2018-05-24T08:05:18.569Z,949.15
2018-05-24T08:06:18.572Z,949.19
2018-05-24T08:07:18.577Z,949.13
2018-05-24T08:08:18.589Z,949.15
2018-05-24T08:09:18.603Z,949.13
2018-05-24T08:10:18.608Z,949.16
2018-05-24T08:11:18.616Z,949.23
2018-05-24T08:12:18.625Z,949.22
2018-05-24T08:13:18.639Z,949.24
2018-05-24T08:14:18.647Z,949.28
2018-05-24T08:15:18.658Z,949.15
2018-05-24T08:16:18.669Z,949.11
2018-05-24T08:17:18.681Z,949.12
2018-05-24T08:18:18.697Z,949.10
2018-05-24T08:19:18.708Z,949.13
2018-05-24T08:20:18.716Z,949.09
2018-05-24T08:21:18.739Z,949.09
2018-05-24T08:22:18.734Z,949.09
2018-05-24T08:23:18.760Z,949.12
2018-05-24T08:24:18.790Z,949.24
2018-05-24T08:25:39.791Z,949.23
2018-05-24T08:26:18.773Z,949.24
2018-05-24T08:27:18.793Z,949.24
2018-05-24T08:28:18.806Z,949.28
2018-05-24T08:29:18.812Z,949.16
2018-05-24T08:30:18.827Z,949.13
2018-05-24T08:31:18.843Z,949.15
2018-05-24T08:32:18.854Z,949.11
2018-05-24T08:33:18.859Z,949.11
2018-05-24T08:34:18.873Z,949.11
2018-05-24T08:35:18.888Z,949.17
2018-05-24T08:36:18.900Z,949.12
2018-05-24T08:37:18.911Z,949.11
2018-05-24T08:38:18.920Z,949.11
2018-05-24T08:39:18.930Z,949.11
2018-05-24T08:40:18.941Z,949.13
2018-05-24T08:41:18.958Z,949.13
2018-05-24T08:42:18.960Z,949.13
2018-05-24T08:43:18.969Z,949.13
2018-05-24T08:44:18.981Z,949.15
2018-05-24T08:45:19.000Z,949.18
2018-05-24T08:46:19.003Z,949.14
2018-05-24T08:47:19.050Z,949.13
2018-05-24T08:48:19.006Z,949.17
2018-05-24T08:49:19.020Z,949.18
2018-05-24T08:50:19.031Z,949.13
2018-05-24T08:51:19.035Z,949.20
2018-05-24T08:52:19.052Z,949.30
2018-05-24T08:53:19.081Z,949.35
2018-05-24T08:54:19.077Z,949.34
2018-05-24T08:55:19.072Z,949.34
2018-05-24T08:56:19.085Z,949.37
2018-05-24T08:57:19.092Z,949.37
2018-05-24T08:58:19.106Z,949.37
2018-05-24T08:59:19.114Z,949.34
2018-05-24T09:00:19.126Z,949.37
2018-05-24T09:01:19.271Z,949.41
2018-05-24T09:02:19.156Z,949.29
2018-05-24T09:03:19.171Z,949.36
2018-05-24T09:04:19.186Z,949.35
2018-05-24T09:05:19.218Z,949.35
2018-05-24T09:06:19.256Z,949.28
2018-05-24T09:07:19.240Z,949.26
2018-05-24T09:08:19.253Z,949.35
2018-05-24T09:09:19.941Z,949.39
2018-05-24T09:10:19.299Z,949.41
2018-05-24T09:11:19.303Z,949.36
2018-05-24T09:12:19.324Z,949.36
2018-05-24T09:13:19.362Z,949.38
2018-05-24T09:14:19.362Z,949.39
2018-05-24T09:15:19.373Z,949.35
2018-05-24T09:16:19.399Z,949.36
2018-05-24T09:17:19.418Z,949.40
2018-05-24T09:18:19.437Z,949.42
2018-05-24T09:19:19.460Z,949.42
2018-05-24T09:20:19.527Z,949.38
2018-05-24T09:21:19.514Z,949.38
2018-05-24T09:22:19.521Z,949.45
2018-05-24T09:23:19.552Z,949.39
2018-05-24T09:24:19.557Z,949.39
2018-05-24T09:25:19.579Z,949.40
2018-05-24T09:26:19.597Z,949.41
2018-05-24T09:27:19.618Z,949.41
2018-05-24T09:28:19.647Z,949.41
2018-05-24T09:29:19.756Z,949.38
2018-05-24T09:30:19.677Z,949.39
2018-05-24T09:31:19.694Z,949.43
2018-05-24T09:32:19.736Z,949.33
2018-05-24T09:33:19.733Z,949.29
2018-05-24T09:34:19.762Z,949.36
2018-05-24T09:35:19.778Z,949.29
2018-05-24T09:36:19.887Z,949.32
2018-05-24T09:37:19.818Z,949.40
2018-05-24T09:38:19.831Z,949.39
2018-05-24T09:39:19.845Z,949.35
2018-05-24T09:40:19.861Z,949.42
2018-05-24T09:41:19.890Z,949.31
2018-05-24T09:42:20.036Z,949.26
2018-05-24T09:43:19.916Z,949.35
2018-05-24T09:44:19.937Z,949.31
2018-05-24T09:45:19.957Z,949.31
2018-05-24T09:46:19.987Z,949.27
2018-05-24T09:47:19.993Z,949.41
2018-05-24T09:48:20.001Z,949.45
2018-05-24T09:49:20.015Z,949.39
2018-05-24T09:50:20.034Z,949.41
2018-05-24T09:51:20.045Z,949.43
2018-05-24T09:52:20.072Z,949.39
2018-05-24T09:53:20.088Z,949.39
2018-05-24T09:54:20.105Z,949.39
2018-05-24T09:55:20.169Z,949.38
2018-05-24T09:56:20.131Z,949.34
2018-05-24T09:57:20.146Z,949.34
2018-05-24T09:58:20.171Z,949.38
2018-05-24T09:59:20.182Z,949.33
2018-05-24T10:00:20.200Z,949.18
2018-05-24T10:01:20.216Z,949.28
2018-05-24T10:02:20.223Z,949.29
2018-05-24T10:03:20.264Z,949.32
2018-05-24T10:04:20.267Z,949.22
2018-05-24T10:05:20.287Z,949.19
2018-05-24T10:06:20.303Z,949.14
2018-05-24T10:07:20.350Z,949.14
2018-05-24T10:08:20.338Z,949.17
2018-05-24T10:09:20.355Z,949.22
2018-05-24T10:10:20.367Z,949.10
2018-05-24T10:11:20.380Z,949.09
2018-05-24T10:12:20.400Z,949.17
2018-05-24T10:13:20.419Z,949.22
2018-05-24T10:14:20.433Z,949.20
2018-05-24T10:15:20.440Z,949.22
2018-05-24T10:16:20.566Z,949.16
2018-05-24T10:17:20.476Z,949.16
2018-05-24T10:18:20.506Z,949.18
2018-05-24T10:19:20.525Z,949.11
2018-05-24T10:20:20.518Z,949.12
2018-05-24T10:21:20.544Z,949.09
2018-05-24T10:22:20.548Z,949.04
2018-05-24T10:24:20.588Z,949.09
2018-05-24T10:25:20.606Z,949.10
2018-05-24T10:26:20.634Z,948.98
2018-05-24T10:27:20.636Z,949.06
2018-05-24T10:28:20.652Z,949.02
2018-05-24T10:29:20.745Z,948.97
2018-05-24T10:30:20.698Z,948.97
2018-05-24T10:31:20.700Z,948.97
2018-05-24T10:32:20.743Z,948.92
2018-05-24T10:33:20.743Z,948.99
2018-05-24T10:34:20.746Z,948.97
2018-05-24T10:35:20.772Z,948.97
2018-05-24T10:36:20.789Z,948.94
2018-05-24T10:37:20.809Z,948.98
2018-05-24T10:38:20.825Z,948.95
2018-05-24T10:39:20.860Z,948.95
2018-05-24T10:40:20.874Z,948.93
2018-05-24T10:41:20.880Z,948.83
2018-05-24T10:42:20.901Z,948.93
2018-05-24T10:43:20.912Z,948.91
2018-05-24T10:44:20.934Z,948.88
2018-05-24T10:45:20.957Z,948.89
2018-05-24T10:46:20.973Z,948.77
2018-05-24T10:47:21.004Z,948.79
2018-05-24T10:48:21.007Z,948.91
2018-05-24T10:49:21.036Z,948.85
2018-05-24T10:50:21.044Z,948.82
2018-05-24T10:51:21.098Z,948.81
2018-05-24T10:52:21.077Z,948.77
2018-05-24T10:53:21.082Z,948.72
2018-05-24T10:54:21.105Z,948.74
2018-05-24T10:55:21.119Z,948.75
2018-05-24T10:56:21.138Z,948.71
2018-05-24T10:57:21.155Z,948.76
2018-05-24T10:58:21.173Z,948.67
2018-05-24T10:59:21.188Z,948.67
2018-05-24T11:00:21.211Z,948.64
2018-05-24T11:01:21.207Z,948.65
2018-05-24T11:02:21.239Z,948.62
2018-05-24T11:03:21.280Z,948.64
2018-05-24T11:04:21.259Z,948.58
2018-05-24T11:05:21.289Z,948.62
2018-05-24T11:06:21.343Z,948.55
2018-05-24T11:07:21.290Z,948.53
2018-05-24T11:08:21.309Z,948.53
2018-05-24T11:09:21.328Z,948.59
2018-05-24T11:10:21.336Z,948.59
2018-05-24T11:11:21.365Z,948.49
2018-05-24T11:12:21.362Z,948.55
2018-05-24T11:13:21.371Z,948.58
2018-05-24T11:14:21.383Z,948.52
2018-05-24T11:15:21.397Z,948.54
2018-05-24T11:16:21.413Z,948.61
2018-05-24T11:17:21.452Z,948.62
2018-05-24T11:18:21.440Z,948.60
2018-05-24T11:19:21.449Z,948.61
2018-05-24T11:20:21.479Z,948.62
2018-05-24T11:21:21.483Z,948.61
2018-05-24T11:22:21.493Z,948.49
2018-05-24T11:23:21.504Z,948.47
2018-05-24T11:24:21.549Z,948.53
2018-05-24T11:25:21.648Z,948.56
2018-05-24T11:26:21.564Z,948.49
2018-05-24T11:27:21.571Z,948.56
2018-05-24T11:28:21.588Z,948.52
2018-05-24T11:29:21.608Z,948.48
2018-05-24T11:30:21.620Z,948.47
2018-05-24T11:31:21.634Z,948.47
2018-05-24T11:32:21.660Z,948.41
2018-05-24T11:33:21.664Z,948.38
2018-05-24T11:34:21.681Z,948.37
2018-05-24T11:35:21.717Z,948.29
2018-05-24T11:36:21.702Z,948.34
2018-05-24T11:37:21.823Z,948.32
2018-05-24T11:38:21.745Z,948.30
2018-05-24T11:39:21.761Z,948.34
2018-05-24T11:40:21.784Z,948.29
2018-05-24T11:41:21.793Z,948.30
2018-05-24T11:42:21.811Z,948.30
2018-05-24T11:43:21.937Z,948.31
2018-05-24T11:44:21.852Z,948.29
2018-05-24T11:45:21.885Z,948.25
2018-05-24T11:46:21.886Z,948.29
2018-05-24T11:47:21.892Z,948.31
2018-05-24T11:48:21.912Z,948.25
2018-05-24T11:49:21.939Z,948.28
2018-05-24T11:50:21.944Z,948.28
2018-05-24T11:51:21.972Z,948.28
2018-05-24T11:52:21.990Z,948.26
2018-05-24T11:53:21.999Z,948.22
2018-05-24T11:54:22.020Z,948.20
2018-05-24T11:55:22.033Z,948.20
2018-05-24T11:56:22.046Z,948.28
2018-05-24T11:57:22.077Z,948.19
2018-05-24T11:58:22.078Z,948.19
2018-05-24T11:59:22.147Z,948.20
2018-05-24T12:00:22.122Z,948.21
2018-05-24T12:01:22.138Z,948.19
2018-05-24T12:02:22.155Z,948.13
2018-05-24T12:03:22.175Z,948.19
2018-05-24T12:04:22.205Z,948.19
2018-05-24T12:05:22.208Z,948.16
2018-05-24T12:06:22.225Z,948.11
2018-05-24T12:07:22.245Z,948.11
2018-05-24T12:08:22.261Z,948.18
2018-05-24T12:09:22.274Z,948.21
2018-05-24T12:10:22.296Z,948.12
2018-05-24T12:11:22.307Z,948.13
2018-05-24T12:12:22.332Z,948.14
2018-05-24T12:13:22.377Z,948.16
2018-05-24T12:14:22.360Z,948.13
2018-05-24T12:15:22.444Z,948.09
2018-05-24T12:16:22.400Z,948.08
2018-05-24T12:17:22.410Z,948.06
2018-05-24T12:18:22.422Z,948.04
2018-05-24T12:19:22.451Z,948.06
2018-05-24T12:20:22.464Z,948.04
2018-05-24T12:21:22.477Z,948.06
2018-05-24T12:22:22.491Z,948.08
2018-05-24T12:23:22.530Z,948.10
2018-05-24T12:24:22.526Z,948.11
2018-05-24T12:25:22.569Z,948.04
2018-05-24T12:26:22.562Z,948.06
2018-05-24T12:27:22.567Z,948.06
2018-05-24T12:28:22.597Z,948.05
2018-05-24T12:29:22.618Z,948.04
2018-05-24T12:30:22.632Z,948.09
2018-05-24T12:31:22.646Z,948.04
2018-05-24T12:32:22.670Z,947.98
2018-05-24T12:33:22.703Z,947.96
2018-05-24T12:34:22.713Z,947.91
2018-05-24T12:35:22.736Z,947.88
2018-05-24T12:36:22.723Z,947.85
2018-05-24T12:37:22.739Z,947.82
2018-05-24T12:38:22.748Z,947.78
2018-05-24T12:39:22.769Z,947.85
2018-05-24T12:40:22.796Z,947.77
2018-05-24T12:41:22.800Z,947.74
2018-05-24T12:42:22.805Z,947.73
2018-05-24T12:43:22.815Z,947.73
2018-05-24T12:44:22.824Z,947.75
2018-05-24T12:45:22.834Z,947.74
2018-05-24T12:46:22.845Z,947.70
2018-05-24T12:47:22.853Z,947.67
2018-05-24T12:48:22.859Z,947.65
2018-05-24T12:49:22.869Z,947.64
2018-05-24T12:50:22.873Z,947.71
2018-05-24T12:51:22.881Z,947.66
2018-05-24T12:52:22.911Z,947.68
2018-05-24T12:53:22.895Z,947.65
2018-05-24T12:54:22.915Z,947.67
2018-05-24T12:55:22.910Z,947.67
2018-05-24T12:56:22.916Z,947.62
2018-05-24T12:57:22.925Z,947.63
2018-05-24T12:58:22.924Z,947.58
2018-05-24T12:59:22.927Z,947.56
2018-05-24T13:00:22.939Z,947.60
2018-05-24T13:01:22.945Z,947.58
2018-05-24T13:02:22.949Z,947.57
2018-05-24T13:03:22.951Z,947.51
2018-05-24T13:04:22.953Z,947.52
2018-05-24T13:05:22.962Z,947.49